Latest Coastal Weather Observations for Port Augusta

IDS60701

Issued at 3:31 pm CDT Monday 6 December 2021 (issued every 10 minutes, with the page automatically refreshed every 10 minutes)

About coastal observations | Map of coastal stations | Coastal observations for SA | Marine services | Other Formats
Station Details ID: 018201 Name: PORT AUGUSTA AERO Lat: -32.51 Lon: 137.72 Height: 13.97 m
Data from the previous 72 hours. | See also: Recent months at Port Augusta
Date/Time
CDT
Wind Sea
Height
m
Swell Vis
km
Cloud Weather Temp
°C
Press
MSL
hPa
Rain since
9am
mm
Dir  Spd
kts
Gust
kts
Height
m
Period
s
Dir
06/03:30pm SE 15 18 - - - - 10 Partly cloudy - 26.3 1009.9 0.0
06/03:00pm ESE 13 17 - - - - 10 Mostly clear - 27.9 1010.0 0.0
06/02:30pm ESE 9 15 - - - - 10 - - 28.2 1010.0 0.0
06/02:00pm SSW 7 12 - - - - 10 Partly cloudy - 27.9 1010.4 0.0
06/01:30pm SSW 6 13 - - - - 10 Partly cloudy - 27.9 1010.7 0.0
06/01:00pm WNW 8 13 - - - - 10 Partly cloudy - 27.2 1011.0 0.0
06/12:30pm N 6 8 - - - - 10 Partly cloudy - 26.3 1011.3 0.0
06/12:00pm N 6 10 - - - - 10 - - 26.1 1011.6 0.0
06/11:30am NNE 3 9 - - - - 10 - - 25.1 1011.9 0.0
06/11:00am WSW 5 8 - - - - 10 Partly cloudy - 24.5 1012.3 0.0
06/10:30am WNW 4 6 - - - - 10 Partly cloudy - 23.9 1012.4 0.0
06/10:00am WSW 5 7 - - - - 10 Partly cloudy - 23.7 1012.6 0.0
06/09:30am ESE 4 5 - - - - 10 Partly cloudy - 22.8 1012.7 0.0
06/09:00am SE 6 8 - - - - 10 Mostly cloudy - 22.4 1012.6 0.0
06/08:30am SSE 8 11 - - - - 10 Cloudy - 20.6 1012.3 0.0
06/08:00am S 11 13 - - - - 10 Partly cloudy - 19.9 1012.1 0.0
06/07:30am SSE 10 12 - - - - 10 Cloudy - 19.0 1011.9 0.0
06/07:00am SSE 9 12 - - - - 10 Partly cloudy - 18.6 1011.6 0.0
06/06:30am S 6 8 - - - - 10 Cloudy - 18.3 1011.7 0.0
06/06:00am SE 8 13 - - - - 10 Cloudy Rain 18.3 1011.6 0.0
06/05:30am SSE 8 13 - - - - 10 Cloudy - 18.4 1011.3 0.0
06/05:00am SSE 6 10 - - - - 10 Cloudy - 19.0 1011.5 0.0
06/04:30am S 6 8 - - - - 10 Cloudy - 18.8 1011.5 0.0
06/04:00am SSE 5 7 - - - - 10 Partly cloudy - 18.5 1011.5 0.0
06/03:30am SSE 5 7 - - - - 10 Partly cloudy - 18.8 1011.4 0.0
06/03:00am SE 8 10 - - - - 10 Cloudy - 19.0 1011.5 0.0
06/02:30am SE 8 10 - - - - 10 - - 19.1 1011.6 0.0
06/02:00am SE 8 12 - - - - 10 Partly cloudy - 19.3 1011.9 0.0
06/01:30am SE 5 7 - - - - 10 Cloudy - 19.5 1012.2 0.0
06/01:00am ESE 6 8 - - - - 10 Cloudy - 19.3 1012.5 0.0
06/12:30am SE 3 5 - - - - 10 Cloudy - 19.6 1013.2 0.0
06/12:00am E 6 7 - - - - 10 Cloudy Rain 19.3 1013.6 0.0
 
Date/Time
CDT
Wind Sea
Height
m
Swell Vis
km
Cloud Weather Temp
°C
Press
MSL
hPa
Rain since
9am
mm
Dir  Spd
kts
Gust
kts
Height
m
Period
s
Dir
05/11:30pm ESE 7 11 - - - - 10 Cloudy - 20.2 1013.7 0.0
05/11:00pm ESE 7 10 - - - - 10 Cloudy - 20.0 1013.9 0.0
05/10:30pm ESE 9 12 - - - - 10 Cloudy - 20.5 1014.0 0.0
05/10:00pm WSW 2 4 - - - - 10 Cloudy - 22.1 1013.8 0.0
05/09:30pm NW 4 5 - - - - 10 Cloudy - 22.0 1013.6 0.0
05/09:00pm WNW 4 5 - - - - 10 Cloudy Showers 22.7 1013.6 0.0
05/08:30pm NNW 6 8 - - - - 10 Partly cloudy - 23.1 1013.8 0.0
05/08:00pm WSW 5 6 - - - - 10 Cloudy - 23.6 1013.6 0.0
05/07:30pm WSW 9 12 - - - - 10 Cloudy - 23.8 1013.2 0.0
05/07:00pm SW 10 12 - - - - 10 Partly cloudy - 24.1 1013.0 0.0
05/06:30pm WSW 11 15 - - - - 10 Partly cloudy - 24.5 1013.2 0.0
05/06:00pm W 13 16 - - - - 10 Partly cloudy - 25.5 1013.0 0.0
05/05:30pm W 11 15 - - - - 10 - - 26.7 1012.6 0.0
05/05:00pm WNW 10 16 - - - - 10 - - 27.4 1012.8 0.0
05/04:30pm WNW 5 8 - - - - 10 - - 27.6 1012.8 0.0
05/04:00pm NNW 6 12 - - - - 10 - - 27.6 1013.2 0.0
05/03:30pm ENE 5 10 - - - - 10 - - 27.9 1013.7 0.0
05/03:00pm WNW 5 10 - - - - 10 - - 28.5 1014.1 0.0
05/02:30pm WNW 9 13 - - - - 10 - - 28.7 1014.5 0.0
05/02:00pm N 6 10 - - - - 10 - - 27.6 1015.1 0.0
05/01:30pm N 5 8 - - - - 10 - - 26.7 1015.5 0.0
05/01:00pm NW 5 10 - - - - 10 - - 26.8 1016.2 0.0
05/12:30pm N 5 12 - - - - 10 - - 25.8 1016.7 0.0
05/12:00pm SSE 5 8 - - - - 10 - - 25.2 1016.9 0.0
05/11:30am E 4 7 - - - - 10 - - 25.0 1017.3 0.0
05/11:00am ESE 8 11 - - - - 10 - - 24.3 1017.4 0.0
05/10:30am ESE 8 11 - - - - 10 - - 22.3 1017.6 0.0
05/10:00am E 10 16 - - - - 10 - - 23.1 1018.0 0.0
05/09:30am SE 9 14 - - - - 10 - - 20.8 1018.1 0.0
05/09:00am SE 8 11 - - - - 10 Mostly cloudy - 20.2 1018.5 0.0
05/08:30am SE 9 12 - - - - 10 - - 18.7 1018.9 0.0
05/08:00am SE 11 17 - - - - 10 - - 17.7 1018.4 0.0
05/07:30am SE 10 15 - - - - 10 - - 17.4 1018.4 0.0
05/07:00am SE 11 15 - - - - 10 - - 17.3 1018.2 0.0
05/06:30am SE 6 8 - - - - 10 - - 15.9 1018.2 0.0
05/06:00am SE 7 9 - - - - 10 - - 15.6 1017.9 0.0
05/05:30am SSE 7 8 - - - - 10 - - 15.4 1017.6 0.0
05/05:00am SSE 8 10 - - - - 10 - - 15.7 1017.3 0.0
05/04:30am S 8 11 - - - - 10 - - 15.8 1017.1 0.0
05/04:00am SSW 5 7 - - - - 10 - - 14.9 1016.9 0.0
05/03:30am S 10 13 - - - - 10 - - 16.2 1016.8 0.0
05/03:00am SSE 10 13 - - - - 10 - - 16.1 1016.7 0.0
05/02:30am S 11 15 - - - - 10 - - 15.8 1016.8 0.0
05/02:00am SSE 14 19 - - - - 10 - - 16.0 1016.8 0.0
05/01:30am S 12 19 - - - - 10 - - 16.2 1017.5 0.0
05/01:00am S 11 15 - - - - 10 - - 16.4 1018.1 0.0
05/12:30am S 12 17 - - - - 10 - - 16.8 1018.6 0.0
05/12:00am SSE 11 15 - - - - 10 - - 17.3 1019.0 0.0
 
Date/Time
CDT
Wind Sea
Height
m
Swell Vis
km
Cloud Weather Temp
°C
Press
MSL
hPa
Rain since
9am
mm
Dir  Spd
kts
Gust
kts
Height
m
Period
s
Dir
04/11:30pm S 13 18 - - - - 10 - - 17.7 1019.2 0.0
04/11:00pm SSE 14 19 - - - - 10 - - 18.3 1019.4 0.0
04/10:30pm S 11 15 - - - - 10 - - 18.5 1019.6 0.0
04/10:00pm S 9 13 - - - - 10 - - 18.4 1019.6 0.0
04/09:30pm SSW 7 11 - - - - 10 - - 18.3 1019.8 0.0
04/09:00pm SSE 11 14 - - - - 10 - - 18.6 1019.9 0.0
04/08:30pm SSE 12 18 - - - - 10 - - 19.0 1019.6 0.0
04/08:00pm SE 12 17 - - - - 10 - - 19.6 1019.6 0.0
04/07:30pm SSE 13 17 - - - - 10 - - 20.6 1019.1 0.0
04/07:00pm SSE 13 18 - - - - 10 - - 21.2 1018.8 0.0
04/06:30pm SSE 15 20 - - - - 10 - - 22.0 1018.6 0.0
04/06:00pm SSE 16 20 - - - - 10 - - 23.4 1018.6 0.0
04/05:30pm SSE 17 23 - - - - 10 - - 24.3 1018.7 0.0
04/05:00pm SSE 16 21 - - - - 10 - - 24.3 1018.8 0.0
04/04:30pm SSE 16 21 - - - - 10 - - 24.8 1019.0 0.0
04/04:00pm SSE 16 22 - - - - 10 - - 24.3 1019.5 0.0
04/03:30pm SSE 16 22 - - - - 10 - - 25.4 1019.4 0.0
04/03:00pm SSE 17 26 - - - - 10 - - 24.7 1019.8 0.0
04/02:30pm SSE 17 22 - - - - 10 - - 24.9 1019.9 0.0
04/02:00pm SSE 17 21 - - - - 10 - - 23.6 1020.1 0.0
04/01:30pm SSE 16 21 - - - - 10 - - 22.8 1020.6 0.0
04/01:00pm SSE 16 21 - - - - 10 - - 24.0 1020.7 0.0
04/12:30pm SSE 15 19 - - - - 10 - - 21.7 1021.0 0.0
04/12:00pm SSE 16 21 - - - - 10 - - 22.0 1021.0 0.0
04/11:30am S 17 21 - - - - 10 - - 22.1 1021.2 0.0
04/11:00am S 18 23 - - - - 10 - - 19.6 1021.3 0.0
04/10:30am S 19 25 - - - - 10 - - 18.9 1021.3 0.0
04/10:00am S 19 25 - - - - 10 - - 18.6 1021.5 0.0
04/09:30am S 20 25 - - - - 10 - - 18.7 1021.4 0.0
04/09:00am S 22 27 - - - - 10 - - 18.5 1021.3 0.0
04/08:30am S 20 25 - - - - 10 - - 17.8 1021.3 0.0
04/08:00am S 17 23 - - - - 10 - - 16.8 1021.2 0.0
04/07:30am S 18 24 - - - - 10 - - 16.2 1020.9 0.0
04/07:00am S 18 23 - - - - 10 - - 15.8 1020.3 0.0
04/06:30am S 16 19 - - - - 10 - - 15.4 1020.1 0.0
04/06:00am S 17 22 - - - - 10 - - 15.0 1019.9 0.0
04/05:30am S 17 22 - - - - 10 - - 15.3 1019.6 0.0
04/05:00am S 15 20 - - - - 10 - - 15.3 1019.6 0.0
04/04:30am S 18 24 - - - - 10 - - 15.5 1019.3 0.0
04/04:00am S 19 23 - - - - 10 - - 15.6 1019.0 0.0
04/03:30am S 17 23 - - - - 10 - - 15.9 1019.0 0.0
04/03:00am S 17 23 - - - - 10 - - 16.1 1019.0 0.0
04/02:30am S 16 20 - - - - 10 - - 16.4 1019.1 0.0
04/02:00am S 16 21 - - - - 10 - - 16.6 1019.1 0.0
04/01:30am S 14 20 - - - - 10 - - 16.9 1019.1 0.0
04/01:00am S 14 18 - - - - 10 - - 17.2 1019.1 0.0
04/12:30am S 13 16 - - - - 10 - - 17.5 1019.5 0.0
04/12:00am S 15 20 - - - - 10 - - 18.1 1019.6 0.0
 
Date/Time
CDT
Wind Sea
Height
m
Swell Vis
km
Cloud Weather Temp
°C
Press
MSL
hPa
Rain since
9am
mm
Dir  Spd
kts
Gust
kts
Height
m
Period
s
Dir
03/11:30pm S 17 22 - - - - 10 - - 18.7 1020.0 0.0
03/11:00pm S 19 23 - - - - 10 - - 18.9 1019.7 0.0
03/10:30pm S 18 23 - - - - 10 - - 19.1 1019.6 0.0
03/10:00pm S 15 21 - - - - 10 - - 19.4 1019.4 0.0
03/09:30pm SSE 13 21 - - - - 10 - - 19.4 1018.9 0.0
03/09:00pm SSE 12 16 - - - - 10 Partly cloudy - 19.2 1018.6 0.0
03/08:30pm SSE 14 17 - - - - 10 - - 19.4 1017.9 0.0
03/08:00pm SSE 17 21 - - - - 10 - - 19.8 1017.7 0.0
03/07:30pm SSE 17 21 - - - - 10 - - 20.1 1017.4 0.0
03/07:00pm SSE 18 22 - - - - 10 - - 20.4 1017.2 0.0
03/06:30pm SSE 18 22 - - - - 10 - - 20.7 1017.8 0.0
03/06:00pm SSE 16 21 - - - - 10 - - 21.9 1017.6 0.0
03/05:30pm SSE 15 19 - - - - 10 - - 23.0 1018.1 0.0
03/05:00pm SSE 19 24 - - - - 10 - - 23.9 1017.9 0.0
03/04:30pm SSE 17 21 - - - - 10 - - 23.4 1017.5 0.0
03/04:00pm SE 14 18 - - - - 10 Partly cloudy - 22.9 1017.6 0.0

Other formats

Comma delimited format used in spreadsheet applications
http://www.bom.gov.au/fwo/IDS60701/IDS60701.95666.axf

JavaScript Object Notation format (JSON) in row-major order
http://www.bom.gov.au/fwo/IDS60701/IDS60701.95666.json

Data quality

Most of these data are generated automatically and are frequently updated. Quality checks on data are not normally performed. It is possible for incorrect values to appear. Refer to information at About Latest Weather Observations and please check the disclaimer before using these data.